aviador You're here:

PAPM Decoded Metar

PORT MOLLER in AK, USA
Report Time2018-01-18 00:56:00
UTC Time2018-01-18 01:55:26
Flight Rules ifr IFR
Wind320° at 17 Gusting to 24 kt
W.Decomp.*RWY 32: 16.3 kt HW 4.7 kt LCW
W.Rank320° ranks 2
Current wind is above 320° avg. (11.8)
Visibility9999 m
Phenomena:N/A
Clouds:Overcast 007 Hf
Expected CloudBase > 400 ft AGL from Temp-Dew spread
Ceiling700 ft
Temp-4°C (ISA -19)
Dew Point-5°C (93% RH)
AAT-12.7°C
QNH1001 hPa
Density Alt-1,854 ft
Elevation16 ft
Report Wrong Elevation
Raw Report
PAPM 180056Z AUTO 32017G24KT 10SM UP OVC007 M04/M05 A2956 RMK AO2
PK WND 31026/0045 UPB29SNB18E29 SLP011 P0000 T10391050
FZRANO=

Extra information for PAPM:More info

Metar Taf Metar & Taf Last 4 Metars F.Rules Stats Wind Profile Meteogram Temp Stats Airport Information Weather charts Add Link Nearby VenuesMetar ALERT Operation Metar Decoded Social comments

AIRNAV info for PAPM